Pensacola, Florida
Current Conditions -  °F | °C
As of 2:53 PM on Tuesday 21 Oct 2014 (Local Time) from KPNS Reporting Station
Clear Clear  
Wind Chill: 79°   Ceiling: Unl
Heat Index: 79°   Visibility: 10mi
Dew Point: 48°   Wind: 6mph
Humidity: 34%   Direction: NA
Pressure: 29.96"   Gusts: NA
Location:  30.42°N, 87.22°W
Report Text: KPNS 211953Z VRB05KT 10SM CLR 26/09 A2996 RMK AO2 SLP147 T02610089
Loading
Personal Weather Stations






























Interactive Weather Map
Tropical Storm Tracking
New forecast layout! Learn more

10-Day Weather Forecast

Advertisements
Track Severe Weather on mobile